sensor_id;sensor_type;location;lat;lon;timestamp;P1;durP1;ratioP1;P2;durP2;ratioP2
18661;SDS011;61528;49.456;11.098;2023-05-02T00:00:29;9.83;;;7.73;;
18661;SDS011;61528;49.456;11.098;2023-05-02T00:02:56;7.93;;;7.10;;
18661;SDS011;61528;49.456;11.098;2023-05-02T00:05:22;8.37;;;7.57;;
18661;SDS011;61528;49.456;11.098;2023-05-02T00:07:49;8.90;;;7.50;;
18661;SDS011;61528;49.456;11.098;2023-05-02T00:10:16;9.80;;;7.17;;
18661;SDS011;61528;49.456;11.098;2023-05-02T00:12:42;10.57;;;7.80;;
18661;SDS011;61528;49.456;11.098;2023-05-02T00:15:08;8.30;;;7.20;;
18661;SDS011;61528;49.456;11.098;2023-05-02T00:17:35;8.10;;;7.30;;
18661;SDS011;61528;49.456;11.098;2023-05-02T00:20:01;9.43;;;7.53;;
18661;SDS011;61528;49.456;11.098;2023-05-02T00:22:29;8.47;;;7.53;;
18661;SDS011;61528;49.456;11.098;2023-05-02T00:24:56;7.53;;;6.73;;
18661;SDS011;61528;49.456;11.098;2023-05-02T00:27:22;8.67;;;7.40;;
18661;SDS011;61528;49.456;11.098;2023-05-02T00:29:48;10.33;;;7.97;;
18661;SDS011;61528;49.456;11.098;2023-05-02T00:32:16;9.43;;;7.77;;
18661;SDS011;61528;49.456;11.098;2023-05-02T00:34:43;9.27;;;7.70;;
18661;SDS011;61528;49.456;11.098;2023-05-02T00:37:09;8.53;;;7.73;;
18661;SDS011;61528;49.456;11.098;2023-05-02T00:39:35;9.60;;;7.97;;
18661;SDS011;61528;49.456;11.098;2023-05-02T00:42:02;9.80;;;8.07;;
18661;SDS011;61528;49.456;11.098;2023-05-02T00:44:28;9.60;;;8.60;;
18661;SDS011;61528;49.456;11.098;2023-05-02T00:46:55;8.37;;;7.20;;
18661;SDS011;61528;49.456;11.098;2023-05-02T00:49:22;8.47;;;7.67;;
18661;SDS011;61528;49.456;11.098;2023-05-02T00:51:48;8.40;;;7.60;;
18661;SDS011;61528;49.456;11.098;2023-05-02T00:54:14;8.43;;;7.27;;
18661;SDS011;61528;49.456;11.098;2023-05-02T00:56:41;8.17;;;7.37;;
18661;SDS011;61528;49.456;11.098;2023-05-02T00:59:07;8.00;;;7.17;;
18661;SDS011;61528;49.456;11.098;2023-05-02T01:07:45;9.37;;;8.27;;
18661;SDS011;61528;49.456;11.098;2023-05-02T01:10:27;9.50;;;8.53;;
18661;SDS011;61528;49.456;11.098;2023-05-02T01:15:30;12.77;;;8.90;;
18661;SDS011;61528;49.456;11.098;2023-05-02T01:17:57;10.33;;;9.33;;
18661;SDS011;61528;49.456;11.098;2023-05-02T01:20:26;10.33;;;9.23;;
18661;SDS011;61528;49.456;11.098;2023-05-02T01:22:55;10.30;;;9.30;;
18661;SDS011;61528;49.456;11.098;2023-05-02T01:31:00;10.40;;;9.33;;
18661;SDS011;61528;49.456;11.098;2023-05-02T01:33:27;11.17;;;9.17;;
18661;SDS011;61528;49.456;11.098;2023-05-02T01:35:53;9.67;;;8.77;;
18661;SDS011;61528;49.456;11.098;2023-05-02T01:38:20;11.80;;;9.27;;
18661;SDS011;61528;49.456;11.098;2023-05-02T01:40:49;9.60;;;8.60;;
18661;SDS011;61528;49.456;11.098;2023-05-02T01:43:16;10.50;;;9.50;;
18661;SDS011;61528;49.456;11.098;2023-05-02T01:45:44;10.13;;;8.83;;
18661;SDS011;61528;49.456;11.098;2023-05-02T01:48:11;11.07;;;9.63;;
18661;SDS011;61528;49.456;11.098;2023-05-02T01:50:40;11.03;;;9.93;;
18661;SDS011;61528;49.456;11.098;2023-05-02T01:53:07;10.80;;;9.70;;
18661;SDS011;61528;49.456;11.098;2023-05-02T01:55:35;10.13;;;8.90;;
18661;SDS011;61528;49.456;11.098;2023-05-02T01:58:03;10.50;;;9.50;;
18661;SDS011;61528;49.456;11.098;2023-05-02T02:00:31;11.73;;;9.30;;
18661;SDS011;61528;49.456;11.098;2023-05-02T02:02:58;11.43;;;10.20;;
18661;SDS011;61528;49.456;11.098;2023-05-02T02:05:24;11.20;;;10.00;;
18661;SDS011;61528;49.456;11.098;2023-05-02T02:07:51;12.40;;;10.20;;
18661;SDS011;61528;49.456;11.098;2023-05-02T02:10:18;11.73;;;10.20;;
18661;SDS011;61528;49.456;11.098;2023-05-02T02:12:47;11.27;;;10.07;;
18661;SDS011;61528;49.456;11.098;2023-05-02T02:20:50;11.40;;;9.63;;
18661;SDS011;61528;49.456;11.098;2023-05-02T02:23:18;11.43;;;9.97;;
18661;SDS011;61528;49.456;11.098;2023-05-02T02:25:46;12.07;;;10.30;;
18661;SDS011;61528;49.456;11.098;2023-05-02T02:28:13;11.97;;;9.60;;
18661;SDS011;61528;49.456;11.098;2023-05-02T02:30:40;12.60;;;9.57;;
18661;SDS011;61528;49.456;11.098;2023-05-02T02:33:06;11.37;;;10.07;;
18661;SDS011;61528;49.456;11.098;2023-05-02T02:35:42;11.43;;;10.23;;
18661;SDS011;61528;49.456;11.098;2023-05-02T02:45:40;12.37;;;10.43;;
18661;SDS011;61528;49.456;11.098;2023-05-02T02:48:18;13.27;;;10.27;;
18661;SDS011;61528;49.456;11.098;2023-05-02T02:53:18;11.20;;;10.10;;
18661;SDS011;61528;49.456;11.098;2023-05-02T02:55:56;11.80;;;10.60;;
18661;SDS011;61528;49.456;11.098;2023-05-02T02:58:41;12.47;;;11.17;;
18661;SDS011;61528;49.456;11.098;2023-05-02T03:01:10;12.87;;;11.03;;
18661;SDS011;61528;49.456;11.098;2023-05-02T03:03:36;11.27;;;9.77;;
18661;SDS011;61528;49.456;11.098;2023-05-02T03:06:04;12.00;;;10.20;;
18661;SDS011;61528;49.456;11.098;2023-05-02T03:08:37;10.90;;;9.87;;
18661;SDS011;61528;49.456;11.098;2023-05-02T03:11:04;10.70;;;9.60;;
18661;SDS011;61528;49.456;11.098;2023-05-02T03:13:30;11.67;;;9.57;;
18661;SDS011;61528;49.456;11.098;2023-05-02T03:18:24;10.80;;;9.57;;
18661;SDS011;61528;49.456;11.098;2023-05-02T03:20:50;11.40;;;9.53;;
18661;SDS011;61528;49.456;11.098;2023-05-02T03:23:16;12.83;;;10.13;;
18661;SDS011;61528;49.456;11.098;2023-05-02T03:25:43;11.03;;;9.67;;
18661;SDS011;61528;49.456;11.098;2023-05-02T03:28:09;10.97;;;9.87;;
18661;SDS011;61528;49.456;11.098;2023-05-02T03:30:35;13.30;;;10.93;;
18661;SDS011;61528;49.456;11.098;2023-05-02T03:33:04;11.70;;;10.40;;
18661;SDS011;61528;49.456;11.098;2023-05-02T03:35:33;11.70;;;10.03;;
18661;SDS011;61528;49.456;11.098;2023-05-02T03:37:59;12.23;;;10.00;;
18661;SDS011;61528;49.456;11.098;2023-05-02T03:40:26;13.87;;;10.13;;
18661;SDS011;61528;49.456;11.098;2023-05-02T03:42:52;13.23;;;10.20;;
18661;SDS011;61528;49.456;11.098;2023-05-02T03:45:19;13.53;;;10.03;;
18661;SDS011;61528;49.456;11.098;2023-05-02T03:47:45;11.63;;;9.93;;
18661;SDS011;61528;49.456;11.098;2023-05-02T03:50:11;12.00;;;10.57;;
18661;SDS011;61528;49.456;11.098;2023-05-02T03:52:37;12.70;;;10.70;;
18661;SDS011;61528;49.456;11.098;2023-05-02T03:55:04;14.60;;;11.37;;
18661;SDS011;61528;49.456;11.098;2023-05-02T03:57:32;13.23;;;10.73;;
18661;SDS011;61528;49.456;11.098;2023-05-02T03:59:58;15.13;;;11.40;;
18661;SDS011;61528;49.456;11.098;2023-05-02T04:02:25;16.37;;;11.57;;
18661;SDS011;61528;49.456;11.098;2023-05-02T04:04:51;12.03;;;10.67;;
18661;SDS011;61528;49.456;11.098;2023-05-02T04:07:17;13.47;;;11.30;;
18661;SDS011;61528;49.456;11.098;2023-05-02T04:09:43;13.40;;;11.27;;
18661;SDS011;61528;49.456;11.098;2023-05-02T04:12:10;12.83;;;11.40;;
18661;SDS011;61528;49.456;11.098;2023-05-02T04:14:36;12.63;;;11.33;;
18661;SDS011;61528;49.456;11.098;2023-05-02T04:17:02;12.53;;;11.07;;
18661;SDS011;61528;49.456;11.098;2023-05-02T04:19:29;12.53;;;11.23;;
18661;SDS011;61528;49.456;11.098;2023-05-02T04:21:55;14.43;;;12.00;;
18661;SDS011;61528;49.456;11.098;2023-05-02T04:24:21;17.03;;;11.40;;
18661;SDS011;61528;49.456;11.098;2023-05-02T04:26:48;13.93;;;11.33;;
18661;SDS011;61528;49.456;11.098;2023-05-02T04:29:14;12.20;;;10.97;;
18661;SDS011;61528;49.456;11.098;2023-05-02T04:31:41;14.13;;;11.57;;
18661;SDS011;61528;49.456;11.098;2023-05-02T04:34:07;16.83;;;11.50;;
18661;SDS011;61528;49.456;11.098;2023-05-02T04:36:33;12.73;;;11.33;;
18661;SDS011;61528;49.456;11.098;2023-05-02T04:39:00;14.47;;;12.13;;
18661;SDS011;61528;49.456;11.098;2023-05-02T04:41:27;14.93;;;11.73;;
18661;SDS011;61528;49.456;11.098;2023-05-02T04:43:54;14.33;;;12.07;;
18661;SDS011;61528;49.456;11.098;2023-05-02T04:46:20;13.30;;;11.10;;
18661;SDS011;61528;49.456;11.098;2023-05-02T04:48:46;13.87;;;12.33;;
18661;SDS011;61528;49.456;11.098;2023-05-02T04:51:12;15.50;;;12.17;;
18661;SDS011;61528;49.456;11.098;2023-05-02T04:53:38;13.53;;;12.13;;
18661;SDS011;61528;49.456;11.098;2023-05-02T04:56:05;14.63;;;12.03;;
18661;SDS011;61528;49.456;11.098;2023-05-02T04:58:31;13.50;;;11.50;;
18661;SDS011;61528;49.456;11.098;2023-05-02T05:00:59;14.33;;;12.77;;
18661;SDS011;61528;49.456;11.098;2023-05-02T05:03:26;14.80;;;12.87;;
18661;SDS011;61528;49.456;11.098;2023-05-02T05:05:57;14.27;;;12.77;;
18661;SDS011;61528;49.456;11.098;2023-05-02T05:08:23;13.97;;;12.47;;
18661;SDS011;61528;49.456;11.098;2023-05-02T05:10:52;16.13;;;13.67;;
18661;SDS011;61528;49.456;11.098;2023-05-02T05:13:19;14.77;;;12.17;;
18661;SDS011;61528;49.456;11.098;2023-05-02T05:15:46;13.30;;;12.00;;
18661;SDS011;61528;49.456;11.098;2023-05-02T05:18:12;15.43;;;13.40;;
18661;SDS011;61528;49.456;11.098;2023-05-02T05:20:38;16.83;;;13.07;;
18661;SDS011;61528;49.456;11.098;2023-05-02T05:23:04;16.97;;;12.53;;
18661;SDS011;61528;49.456;11.098;2023-05-02T05:25:31;15.23;;;13.27;;
18661;SDS011;61528;49.456;11.098;2023-05-02T05:28:00;17.40;;;13.97;;
18661;SDS011;61528;49.456;11.098;2023-05-02T05:30:27;14.53;;;12.93;;
18661;SDS011;61528;49.456;11.098;2023-05-02T05:32:55;17.13;;;14.10;;
18661;SDS011;61528;49.456;11.098;2023-05-02T05:35:23;15.83;;;13.40;;
18661;SDS011;61528;49.456;11.098;2023-05-02T05:37:49;17.77;;;14.57;;
18661;SDS011;61528;49.456;11.098;2023-05-02T05:40:15;15.73;;;13.47;;
18661;SDS011;61528;49.456;11.098;2023-05-02T05:42:41;17.53;;;13.97;;
18661;SDS011;61528;49.456;11.098;2023-05-02T05:45:08;14.67;;;13.07;;
18661;SDS011;61528;49.456;11.098;2023-05-02T05:47:34;16.97;;;14.07;;
18661;SDS011;61528;49.456;11.098;2023-05-02T05:50:01;14.33;;;12.43;;
18661;SDS011;61528;49.456;11.098;2023-05-02T05:52:27;15.63;;;13.27;;
18661;SDS011;61528;49.456;11.098;2023-05-02T05:54:53;15.97;;;12.93;;
18661;SDS011;61528;49.456;11.098;2023-05-02T05:57:21;16.33;;;13.37;;
18661;SDS011;61528;49.456;11.098;2023-05-02T05:59:48;16.47;;;13.50;;
18661;SDS011;61528;49.456;11.098;2023-05-02T06:02:14;16.23;;;13.17;;
18661;SDS011;61528;49.456;11.098;2023-05-02T06:04:40;17.77;;;14.17;;
18661;SDS011;61528;49.456;11.098;2023-05-02T06:07:06;15.27;;;13.53;;
18661;SDS011;61528;49.456;11.098;2023-05-02T06:09:32;16.40;;;14.13;;
18661;SDS011;61528;49.456;11.098;2023-05-02T06:12:00;15.67;;;13.47;;
18661;SDS011;61528;49.456;11.098;2023-05-02T06:14:26;19.63;;;14.40;;
18661;SDS011;61528;49.456;11.098;2023-05-02T06:16:52;16.67;;;13.60;;
18661;SDS011;61528;49.456;11.098;2023-05-02T06:19:19;16.43;;;13.97;;
18661;SDS011;61528;49.456;11.098;2023-05-02T06:21:45;18.63;;;14.40;;
18661;SDS011;61528;49.456;11.098;2023-05-02T06:24:11;14.13;;;12.73;;
18661;SDS011;61528;49.456;11.098;2023-05-02T06:26:37;15.50;;;13.30;;
18661;SDS011;61528;49.456;11.098;2023-05-02T06:29:03;16.53;;;13.37;;
18661;SDS011;61528;49.456;11.098;2023-05-02T06:31:30;15.67;;;14.07;;
18661;SDS011;61528;49.456;11.098;2023-05-02T06:33:56;16.70;;;14.07;;
18661;SDS011;61528;49.456;11.098;2023-05-02T06:36:22;16.23;;;14.20;;
18661;SDS011;61528;49.456;11.098;2023-05-02T06:38:48;16.40;;;14.23;;
18661;SDS011;61528;49.456;11.098;2023-05-02T06:41:14;17.87;;;13.87;;
18661;SDS011;61528;49.456;11.098;2023-05-02T06:43:40;16.83;;;13.53;;
18661;SDS011;61528;49.456;11.098;2023-05-02T06:46:07;15.63;;;12.63;;
18661;SDS011;61528;49.456;11.098;2023-05-02T06:48:36;15.10;;;13.30;;
18661;SDS011;61528;49.456;11.098;2023-05-02T06:51:03;15.27;;;13.33;;
18661;SDS011;61528;49.456;11.098;2023-05-02T06:53:29;16.33;;;13.73;;
18661;SDS011;61528;49.456;11.098;2023-05-02T06:55:56;15.87;;;14.07;;
18661;SDS011;61528;49.456;11.098;2023-05-02T06:58:22;16.73;;;14.03;;
18661;SDS011;61528;49.456;11.098;2023-05-02T07:00:48;17.20;;;13.87;;
18661;SDS011;61528;49.456;11.098;2023-05-02T07:03:14;17.20;;;14.53;;
18661;SDS011;61528;49.456;11.098;2023-05-02T07:05:41;15.70;;;13.80;;
18661;SDS011;61528;49.456;11.098;2023-05-02T07:08:07;16.03;;;13.37;;
18661;SDS011;61528;49.456;11.098;2023-05-02T07:10:34;16.03;;;13.77;;
18661;SDS011;61528;49.456;11.098;2023-05-02T07:13:00;17.93;;;14.20;;
18661;SDS011;61528;49.456;11.098;2023-05-02T07:15:28;16.17;;;14.30;;
18661;SDS011;61528;49.456;11.098;2023-05-02T07:17:54;15.70;;;14.00;;
18661;SDS011;61528;49.456;11.098;2023-05-02T07:23:07;16.53;;;14.60;;
18661;SDS011;61528;49.456;11.098;2023-05-02T07:28:20;16.53;;;14.40;;
18661;SDS011;61528;49.456;11.098;2023-05-02T07:30:47;15.10;;;13.03;;
18661;SDS011;61528;49.456;11.098;2023-05-02T07:33:13;14.93;;;13.37;;
18661;SDS011;61528;49.456;11.098;2023-05-02T07:35:40;14.40;;;12.90;;
18661;SDS011;61528;49.456;11.098;2023-05-02T07:38:07;14.33;;;12.77;;
18661;SDS011;61528;49.456;11.098;2023-05-02T07:40:43;14.47;;;12.97;;
18661;SDS011;61528;49.456;11.098;2023-05-02T07:46:15;13.73;;;12.20;;
18661;SDS011;61528;49.456;11.098;2023-05-02T07:51:33;14.70;;;12.70;;
18661;SDS011;61528;49.456;11.098;2023-05-02T07:54:20;16.20;;;12.67;;
18661;SDS011;61528;49.456;11.098;2023-05-02T07:56:47;16.67;;;12.60;;
18661;SDS011;61528;49.456;11.098;2023-05-02T07:59:19;14.10;;;12.47;;
18661;SDS011;61528;49.456;11.098;2023-05-02T08:01:49;13.07;;;11.67;;
18661;SDS011;61528;49.456;11.098;2023-05-02T08:04:20;12.43;;;11.17;;
18661;SDS011;61528;49.456;11.098;2023-05-02T08:06:50;14.30;;;11.20;;
18661;SDS011;61528;49.456;11.098;2023-05-02T08:09:17;13.67;;;11.27;;
18661;SDS011;61528;49.456;11.098;2023-05-02T08:11:47;14.70;;;13.10;;
18661;SDS011;61528;49.456;11.098;2023-05-02T08:14:14;13.87;;;12.47;;
18661;SDS011;61528;49.456;11.098;2023-05-02T08:16:43;14.57;;;12.20;;
18661;SDS011;61528;49.456;11.098;2023-05-02T08:19:15;15.77;;;13.23;;
18661;SDS011;61528;49.456;11.098;2023-05-02T08:21:41;14.23;;;12.77;;
18661;SDS011;61528;49.456;11.098;2023-05-02T08:24:08;13.73;;;11.90;;
18661;SDS011;61528;49.456;11.098;2023-05-02T08:26:34;14.60;;;12.00;;
18661;SDS011;61528;49.456;11.098;2023-05-02T08:29:00;13.87;;;11.97;;
18661;SDS011;61528;49.456;11.098;2023-05-02T08:31:28;13.80;;;12.40;;
18661;SDS011;61528;49.456;11.098;2023-05-02T08:33:55;13.13;;;11.73;;
18661;SDS011;61528;49.456;11.098;2023-05-02T08:36:21;14.10;;;12.60;;
18661;SDS011;61528;49.456;11.098;2023-05-02T08:38:49;15.97;;;11.40;;
18661;SDS011;61528;49.456;11.098;2023-05-02T08:41:16;13.67;;;11.60;;
18661;SDS011;61528;49.456;11.098;2023-05-02T08:43:42;13.60;;;11.30;;
18661;SDS011;61528;49.456;11.098;2023-05-02T08:46:10;12.90;;;10.90;;
18661;SDS011;61528;49.456;11.098;2023-05-02T08:48:37;12.97;;;10.37;;
18661;SDS011;61528;49.456;11.098;2023-05-02T08:51:03;11.47;;;10.37;;
18661;SDS011;61528;49.456;11.098;2023-05-02T08:53:35;13.57;;;11.53;;
18661;SDS011;61528;49.456;11.098;2023-05-02T08:56:01;11.50;;;10.40;;
18661;SDS011;61528;49.456;11.098;2023-05-02T08:58:27;11.37;;;9.93;;
18661;SDS011;61528;49.456;11.098;2023-05-02T09:00:59;10.27;;;9.27;;
18661;SDS011;61528;49.456;11.098;2023-05-02T09:03:33;10.07;;;9.00;;
18661;SDS011;61528;49.456;11.098;2023-05-02T09:08:25;11.10;;;9.53;;
18661;SDS011;61528;49.456;11.098;2023-05-02T09:10:51;10.17;;;9.27;;
18661;SDS011;61528;49.456;11.098;2023-05-02T09:15:57;10.57;;;9.57;;
18661;SDS011;61528;49.456;11.098;2023-05-02T09:18:31;10.40;;;9.30;;
18661;SDS011;61528;49.456;11.098;2023-05-02T09:20:59;11.07;;;9.40;;
18661;SDS011;61528;49.456;11.098;2023-05-02T09:23:36;10.73;;;9.57;;
18661;SDS011;61528;49.456;11.098;2023-05-02T09:26:12;10.47;;;9.37;;
18661;SDS011;61528;49.456;11.098;2023-05-02T09:31:09;11.20;;;8.77;;
18661;SDS011;61528;49.456;11.098;2023-05-02T09:33:37;10.60;;;9.50;;
18661;SDS011;61528;49.456;11.098;2023-05-02T09:36:04;10.23;;;9.23;;
18661;SDS011;61528;49.456;11.098;2023-05-02T09:38:31;9.73;;;8.13;;
18661;SDS011;61528;49.456;11.098;2023-05-02T09:41:00;8.90;;;8.00;;
18661;SDS011;61528;49.456;11.098;2023-05-02T09:43:28;11.23;;;9.50;;
18661;SDS011;61528;49.456;11.098;2023-05-02T09:45:58;10.60;;;9.43;;
18661;SDS011;61528;49.456;11.098;2023-05-02T09:48:28;9.97;;;8.83;;
18661;SDS011;61528;49.456;11.098;2023-05-02T09:50:55;12.03;;;10.73;;
18661;SDS011;61528;49.456;11.098;2023-05-02T09:53:28;10.17;;;8.90;;
18661;SDS011;61528;49.456;11.098;2023-05-02T09:56:13;9.83;;;8.83;;
18661;SDS011;61528;49.456;11.098;2023-05-02T09:58:39;9.27;;;8.37;;
18661;SDS011;61528;49.456;11.098;2023-05-02T10:01:06;10.40;;;9.10;;
18661;SDS011;61528;49.456;11.098;2023-05-02T10:03:36;9.07;;;8.17;;
18661;SDS011;61528;49.456;11.098;2023-05-02T10:06:03;9.50;;;8.30;;
18661;SDS011;61528;49.456;11.098;2023-05-02T10:08:32;8.87;;;7.97;;
18661;SDS011;61528;49.456;11.098;2023-05-02T10:10:59;10.57;;;8.80;;
18661;SDS011;61528;49.456;11.098;2023-05-02T10:13:29;9.63;;;8.47;;
18661;SDS011;61528;49.456;11.098;2023-05-02T10:16:05;9.80;;;8.57;;
18661;SDS011;61528;49.456;11.098;2023-05-02T10:18:51;9.80;;;8.87;;
18661;SDS011;61528;49.456;11.098;2023-05-02T10:21:31;9.23;;;8.27;;
18661;SDS011;61528;49.456;11.098;2023-05-02T10:23:57;9.57;;;8.67;;
18661;SDS011;61528;49.456;11.098;2023-05-02T10:26:25;9.30;;;8.40;;
18661;SDS011;61528;49.456;11.098;2023-05-02T10:28:52;10.30;;;8.70;;
18661;SDS011;61528;49.456;11.098;2023-05-02T10:31:18;9.20;;;8.30;;
18661;SDS011;61528;49.456;11.098;2023-05-02T10:33:54;11.43;;;9.03;;
18661;SDS011;61528;49.456;11.098;2023-05-02T10:36:22;9.93;;;8.83;;
18661;SDS011;61528;49.456;11.098;2023-05-02T10:38:49;9.40;;;8.57;;
18661;SDS011;61528;49.456;11.098;2023-05-02T10:41:18;10.47;;;9.57;;
18661;SDS011;61528;49.456;11.098;2023-05-02T10:43:47;10.03;;;9.13;;
18661;SDS011;61528;49.456;11.098;2023-05-02T10:46:31;9.40;;;8.50;;
18661;SDS011;61528;49.456;11.098;2023-05-02T10:49:05;10.17;;;8.73;;
18661;SDS011;61528;49.456;11.098;2023-05-02T10:51:33;9.87;;;8.87;;
18661;SDS011;61528;49.456;11.098;2023-05-02T11:01:53;9.73;;;8.67;;
18661;SDS011;61528;49.456;11.098;2023-05-02T11:04:19;12.23;;;8.27;;
18661;SDS011;61528;49.456;11.098;2023-05-02T11:11:48;7.07;;;6.43;;
18661;SDS011;61528;49.456;11.098;2023-05-02T11:22:53;7.77;;;6.90;;
18661;SDS011;61528;49.456;11.098;2023-05-02T11:25:00;8.57;;;7.67;;
18661;SDS011;61528;49.456;11.098;2023-05-02T11:29:58;7.87;;;7.07;;
18661;SDS011;61528;49.456;11.098;2023-05-02T11:33:09;7.47;;;6.77;;
18661;SDS011;61528;49.456;11.098;2023-05-02T11:37:40;7.37;;;6.60;;
18661;SDS011;61528;49.456;11.098;2023-05-02T11:40:10;6.93;;;6.33;;
18661;SDS011;61528;49.456;11.098;2023-05-02T11:42:36;6.07;;;5.57;;
18661;SDS011;61528;49.456;11.098;2023-05-02T11:45:02;7.27;;;6.57;;
18661;SDS011;61528;49.456;11.098;2023-05-02T11:47:31;6.30;;;5.63;;
18661;SDS011;61528;49.456;11.098;2023-05-02T11:49:57;6.00;;;5.40;;
18661;SDS011;61528;49.456;11.098;2023-05-02T11:52:24;5.47;;;4.80;;
18661;SDS011;61528;49.456;11.098;2023-05-02T11:54:54;5.07;;;4.57;;
18661;SDS011;61528;49.456;11.098;2023-05-02T11:57:21;5.67;;;5.07;;
18661;SDS011;61528;49.456;11.098;2023-05-02T11:59:54;6.20;;;5.47;;
18661;SDS011;61528;49.456;11.098;2023-05-02T12:02:42;5.50;;;4.87;;
18661;SDS011;61528;49.456;11.098;2023-05-02T12:05:07;5.77;;;5.20;;
18661;SDS011;61528;49.456;11.098;2023-05-02T12:07:37;5.97;;;5.47;;
18661;SDS011;61528;49.456;11.098;2023-05-02T12:10:04;6.83;;;6.23;;
18661;SDS011;61528;49.456;11.098;2023-05-02T12:12:31;5.90;;;5.30;;
18661;SDS011;61528;49.456;11.098;2023-05-02T12:15:00;7.63;;;5.40;;
18661;SDS011;61528;49.456;11.098;2023-05-02T12:17:28;6.27;;;5.60;;
18661;SDS011;61528;49.456;11.098;2023-05-02T12:19:55;6.57;;;5.87;;
18661;SDS011;61528;49.456;11.098;2023-05-02T12:22:22;11.40;;;5.90;;
18661;SDS011;61528;49.456;11.098;2023-05-02T12:27:33;7.50;;;5.67;;
18661;SDS011;61528;49.456;11.098;2023-05-02T12:32:54;7.33;;;5.50;;
18661;SDS011;61528;49.456;11.098;2023-05-02T12:35:22;7.83;;;5.90;;
18661;SDS011;61528;49.456;11.098;2023-05-02T12:37:48;5.53;;;5.03;;
18661;SDS011;61528;49.456;11.098;2023-05-02T12:40:15;5.97;;;5.30;;
18661;SDS011;61528;49.456;11.098;2023-05-02T12:42:41;4.23;;;3.30;;
18661;SDS011;61528;49.456;11.098;2023-05-02T12:45:17;2.93;;;2.70;;
18661;SDS011;61528;49.456;11.098;2023-05-02T12:47:44;3.43;;;2.80;;
18661;SDS011;61528;49.456;11.098;2023-05-02T12:50:10;3.10;;;2.47;;
18661;SDS011;61528;49.456;11.098;2023-05-02T12:52:50;3.67;;;2.70;;
18661;SDS011;61528;49.456;11.098;2023-05-02T12:55:22;2.37;;;2.10;;
18661;SDS011;61528;49.456;11.098;2023-05-02T12:57:49;3.00;;;2.67;;
18661;SDS011;61528;49.456;11.098;2023-05-02T13:00:15;3.70;;;3.40;;
18661;SDS011;61528;49.456;11.098;2023-05-02T13:02:42;4.20;;;3.80;;
18661;SDS011;61528;49.456;11.098;2023-05-02T13:05:18;4.53;;;4.10;;
18661;SDS011;61528;49.456;11.098;2023-05-02T13:07:44;4.83;;;4.43;;
18661;SDS011;61528;49.456;11.098;2023-05-02T13:10:11;5.57;;;4.17;;
18661;SDS011;61528;49.456;11.098;2023-05-02T13:12:38;5.93;;;3.90;;
18661;SDS011;61528;49.456;11.098;2023-05-02T13:15:04;3.60;;;3.30;;
18661;SDS011;61528;49.456;11.098;2023-05-02T13:17:31;3.40;;;3.00;;
18661;SDS011;61528;49.456;11.098;2023-05-02T13:19:58;3.03;;;2.80;;
18661;SDS011;61528;49.456;11.098;2023-05-02T13:22:25;2.53;;;2.03;;
18661;SDS011;61528;49.456;11.098;2023-05-02T13:24:52;2.00;;;1.90;;
18661;SDS011;61528;49.456;11.098;2023-05-02T13:27:18;2.70;;;2.20;;
18661;SDS011;61528;49.456;11.098;2023-05-02T13:29:44;2.50;;;2.30;;
18661;SDS011;61528;49.456;11.098;2023-05-02T13:32:11;2.27;;;2.07;;
18661;SDS011;61528;49.456;11.098;2023-05-02T13:34:37;2.30;;;2.10;;
18661;SDS011;61528;49.456;11.098;2023-05-02T13:37:03;3.20;;;2.30;;
18661;SDS011;61528;49.456;11.098;2023-05-02T13:39:30;3.30;;;2.40;;
18661;SDS011;61528;49.456;11.098;2023-05-02T13:41:56;2.80;;;2.27;;
18661;SDS011;61528;49.456;11.098;2023-05-02T13:44:22;3.30;;;2.47;;
18661;SDS011;61528;49.456;11.098;2023-05-02T13:46:49;3.23;;;2.80;;
18661;SDS011;61528;49.456;11.098;2023-05-02T13:49:15;3.33;;;3.03;;
18661;SDS011;61528;49.456;11.098;2023-05-02T13:51:41;3.37;;;3.07;;
18661;SDS011;61528;49.456;11.098;2023-05-02T13:54:08;2.70;;;2.50;;
18661;SDS011;61528;49.456;11.098;2023-05-02T13:56:34;3.03;;;2.73;;
18661;SDS011;61528;49.456;11.098;2023-05-02T13:59:02;2.80;;;2.50;;
18661;SDS011;61528;49.456;11.098;2023-05-02T14:01:30;2.80;;;2.50;;
18661;SDS011;61528;49.456;11.098;2023-05-02T14:03:57;3.37;;;2.87;;
18661;SDS011;61528;49.456;11.098;2023-05-02T14:06:23;3.70;;;2.90;;
18661;SDS011;61528;49.456;11.098;2023-05-02T14:08:49;2.60;;;2.40;;
18661;SDS011;61528;49.456;11.098;2023-05-02T14:11:16;2.70;;;2.50;;
18661;SDS011;61528;49.456;11.098;2023-05-02T14:13:43;3.03;;;2.40;;
18661;SDS011;61528;49.456;11.098;2023-05-02T14:16:10;2.77;;;2.50;;
18661;SDS011;61528;49.456;11.098;2023-05-02T14:18:36;2.07;;;1.90;;
18661;SDS011;61528;49.456;11.098;2023-05-02T14:21:03;2.93;;;2.40;;
18661;SDS011;61528;49.456;11.098;2023-05-02T14:23:30;2.13;;;1.60;;
18661;SDS011;61528;49.456;11.098;2023-05-02T14:25:56;1.50;;;1.40;;
18661;SDS011;61528;49.456;11.098;2023-05-02T14:28:22;2.07;;;1.87;;
18661;SDS011;61528;49.456;11.098;2023-05-02T14:30:49;1.90;;;1.80;;
18661;SDS011;61528;49.456;11.098;2023-05-02T14:33:16;2.43;;;1.50;;
18661;SDS011;61528;49.456;11.098;2023-05-02T14:35:42;1.30;;;1.20;;
18661;SDS011;61528;49.456;11.098;2023-05-02T14:38:08;2.23;;;1.40;;
18661;SDS011;61528;49.456;11.098;2023-05-02T14:40:35;1.17;;;1.17;;
18661;SDS011;61528;49.456;11.098;2023-05-02T14:43:02;1.67;;;1.40;;
18661;SDS011;61528;49.456;11.098;2023-05-02T14:45:28;3.40;;;1.60;;
18661;SDS011;61528;49.456;11.098;2023-05-02T14:47:55;1.37;;;1.27;;
18661;SDS011;61528;49.456;11.098;2023-05-02T14:50:22;1.20;;;1.10;;
18661;SDS011;61528;49.456;11.098;2023-05-02T14:52:49;1.87;;;1.10;;
18661;SDS011;61528;49.456;11.098;2023-05-02T14:55:18;0.90;;;0.90;;
18661;SDS011;61528;49.456;11.098;2023-05-02T14:57:44;1.20;;;1.20;;
18661;SDS011;61528;49.456;11.098;2023-05-02T15:00:11;1.50;;;1.40;;
18661;SDS011;61528;49.456;11.098;2023-05-02T15:02:37;1.13;;;1.03;;
18661;SDS011;61528;49.456;11.098;2023-05-02T15:05:04;1.30;;;1.00;;
18661;SDS011;61528;49.456;11.098;2023-05-02T15:07:35;1.20;;;1.10;;
18661;SDS011;61528;49.456;11.098;2023-05-02T15:10:01;1.30;;;1.20;;
18661;SDS011;61528;49.456;11.098;2023-05-02T15:12:28;1.10;;;0.90;;
18661;SDS011;61528;49.456;11.098;2023-05-02T15:14:55;1.37;;;1.10;;
18661;SDS011;61528;49.456;11.098;2023-05-02T15:17:22;1.40;;;1.10;;
18661;SDS011;61528;49.456;11.098;2023-05-02T15:19:48;1.53;;;1.10;;
18661;SDS011;61528;49.456;11.098;2023-05-02T15:22:15;0.90;;;0.90;;
18661;SDS011;61528;49.456;11.098;2023-05-02T15:24:42;0.90;;;0.90;;
18661;SDS011;61528;49.456;11.098;2023-05-02T15:27:08;1.13;;;1.00;;
18661;SDS011;61528;49.456;11.098;2023-05-02T15:29:34;1.40;;;1.30;;
18661;SDS011;61528;49.456;11.098;2023-05-02T15:32:01;3.23;;;1.40;;
18661;SDS011;61528;49.456;11.098;2023-05-02T15:34:27;1.83;;;1.20;;
18661;SDS011;61528;49.456;11.098;2023-05-02T15:36:53;1.20;;;1.20;;
18661;SDS011;61528;49.456;11.098;2023-05-02T15:39:20;1.60;;;1.50;;
18661;SDS011;61528;49.456;11.098;2023-05-02T15:41:48;1.50;;;1.40;;
18661;SDS011;61528;49.456;11.098;2023-05-02T15:44:15;1.80;;;1.70;;
18661;SDS011;61528;49.456;11.098;2023-05-02T15:46:41;2.20;;;1.43;;